createdAt,value
2019-03-11T00:00:59.747Z,56.53
2019-03-11T00:02:09.066Z,56.76
2019-03-11T00:03:17.238Z,56.95
2019-03-11T00:04:26.096Z,57.08
2019-03-11T00:05:34.804Z,57.28
2019-03-11T00:06:43.018Z,57.56
2019-03-11T00:07:51.138Z,57.77
2019-03-11T00:08:59.284Z,57.91
2019-03-11T00:10:09.451Z,58.03
2019-03-11T00:11:17.541Z,58.17
2019-03-11T00:12:25.456Z,58.25
2019-03-11T00:13:33.486Z,58.36
2019-03-11T00:14:41.174Z,58.50
2019-03-11T00:15:49.128Z,58.61
2019-03-11T00:16:57.203Z,58.92
2019-03-11T00:18:05.389Z,59.02
2019-03-11T00:19:13.309Z,59.05
2019-03-11T00:20:21.510Z,59.12
2019-03-11T00:21:29.405Z,59.06
2019-03-11T00:22:37.217Z,58.76
2019-03-11T00:23:45.031Z,57.63
2019-03-11T00:24:52.985Z,57.14
2019-03-11T00:26:00.959Z,56.61
2019-03-11T00:27:09.327Z,55.19
2019-03-11T00:28:17.260Z,53.58
2019-03-11T00:29:25.429Z,52.55
2019-03-11T00:30:33.264Z,51.79
2019-03-11T00:31:41.094Z,50.70
2019-03-11T00:32:49.138Z,50.21
2019-03-11T00:33:58.376Z,49.63
2019-03-11T00:35:07.740Z,49.05
2019-03-11T00:36:15.533Z,47.68
2019-03-11T00:37:23.444Z,47.55
2019-03-11T00:38:31.100Z,46.98
2019-03-11T00:39:39.078Z,46.91
2019-03-11T00:40:47.331Z,46.31
2019-03-11T00:41:55.116Z,46.33
2019-03-11T00:43:02.908Z,45.89
2019-03-11T00:44:10.921Z,45.95
2019-03-11T00:45:18.895Z,45.79
2019-03-11T00:46:26.807Z,45.40
2019-03-11T00:47:34.544Z,45.43
2019-03-11T00:48:42.264Z,45.44
2019-03-11T00:49:50.354Z,45.27
2019-03-11T00:50:58.254Z,45.32
2019-03-11T00:52:06.456Z,44.80
2019-03-11T00:53:14.323Z,44.10
2019-03-11T00:54:22.125Z,44.05
2019-03-11T00:55:30.040Z,44.09
2019-03-11T00:56:37.722Z,43.88
2019-03-11T00:57:45.572Z,43.40
2019-03-11T00:58:53.378Z,43.39
2019-03-11T01:00:01.173Z,43.19
2019-03-11T01:01:09.148Z,43.14
2019-03-11T01:02:17.084Z,43.15
2019-03-11T01:03:25.159Z,43.55
2019-03-11T01:04:33.000Z,43.78
2019-03-11T01:05:40.777Z,43.98
2019-03-11T01:06:48.631Z,44.28
2019-03-11T01:07:56.460Z,44.87
2019-03-11T01:09:05.826Z,44.45
2019-03-11T01:10:13.910Z,44.34
2019-03-11T01:11:21.703Z,44.62
2019-03-11T01:12:29.556Z,44.38
2019-03-11T01:13:37.394Z,44.33
2019-03-11T01:14:45.053Z,44.63
2019-03-11T01:15:52.792Z,44.64
2019-03-11T01:17:00.747Z,43.90
2019-03-11T01:18:08.831Z,43.65
2019-03-11T01:19:16.621Z,42.77
2019-03-11T01:20:24.547Z,42.60
2019-03-11T01:21:32.369Z,42.72
2019-03-11T01:22:40.232Z,42.18
2019-03-11T01:23:48.123Z,41.68
2019-03-11T01:24:55.900Z,42.11
2019-03-11T01:26:04.413Z,42.90
2019-03-11T01:27:12.295Z,42.51
2019-03-11T01:28:20.409Z,42.75
2019-03-11T01:29:28.426Z,42.87
2019-03-11T01:30:36.664Z,42.51
2019-03-11T01:31:45.491Z,42.61
2019-03-11T01:32:54.070Z,42.32
2019-03-11T01:34:02.474Z,41.48
2019-03-11T01:35:11.227Z,41.83
2019-03-11T01:36:19.617Z,42.38
2019-03-11T01:37:27.705Z,42.50
2019-03-11T01:38:35.745Z,42.91
2019-03-11T01:39:46.202Z,42.94
2019-03-11T01:40:54.361Z,43.24
2019-03-11T01:42:02.420Z,43.69
2019-03-11T01:43:10.231Z,43.80
2019-03-11T01:44:18.091Z,43.80
2019-03-11T01:45:25.837Z,44.23
2019-03-11T01:46:33.595Z,44.45
2019-03-11T01:47:41.620Z,44.56
2019-03-11T01:48:49.561Z,44.84
2019-03-11T01:49:57.491Z,44.99
2019-03-11T01:51:05.851Z,45.23
2019-03-11T01:52:13.568Z,45.66
2019-03-11T01:53:21.419Z,46.53
2019-03-11T01:54:29.561Z,46.99
2019-03-11T01:55:37.501Z,48.01
2019-03-11T01:56:45.421Z,49.17
2019-03-11T01:57:54.790Z,50.12
2019-03-11T01:59:02.879Z,50.89
2019-03-11T02:00:14.883Z,51.58
2019-03-11T02:01:22.919Z,52.00
2019-03-11T02:02:30.775Z,53.04
2019-03-11T02:03:38.525Z,54.37
2019-03-11T02:04:46.558Z,55.06
2019-03-11T02:05:54.418Z,57.07
2019-03-11T02:07:02.734Z,58.45
2019-03-11T02:08:10.980Z,60.13
2019-03-11T02:09:19.736Z,61.63
2019-03-11T02:10:28.048Z,62.67
2019-03-11T02:11:35.930Z,63.48
2019-03-11T02:12:44.018Z,63.64
2019-03-11T02:13:52.323Z,63.53
2019-03-11T02:15:00.518Z,63.71
2019-03-11T02:16:08.430Z,63.04
2019-03-11T02:17:16.114Z,63.16
2019-03-11T02:18:24.407Z,63.11
2019-03-11T02:19:32.502Z,62.99
2019-03-11T02:20:40.596Z,62.69
2019-03-11T02:21:48.492Z,62.52
2019-03-11T02:22:56.290Z,62.57
2019-03-11T02:24:04.161Z,62.66
2019-03-11T02:25:12.543Z,62.74
2019-03-11T02:26:20.477Z,62.20
2019-03-11T02:27:28.516Z,62.43
2019-03-11T02:28:36.254Z,62.43
2019-03-11T02:29:44.396Z,62.31
2019-03-11T02:30:52.557Z,62.22
2019-03-11T02:32:00.623Z,62.06
2019-03-11T02:33:08.643Z,61.94
2019-03-11T02:34:16.766Z,61.33
2019-03-11T02:35:30.547Z,61.26
2019-03-11T02:36:38.430Z,61.26
2019-03-11T02:37:46.526Z,60.53
2019-03-11T02:38:54.410Z,59.97
2019-03-11T02:40:02.738Z,59.69
2019-03-11T02:41:10.640Z,59.65
2019-03-11T02:42:18.508Z,60.19
2019-03-11T02:43:26.300Z,60.16
2019-03-11T02:44:34.565Z,60.53
2019-03-11T02:45:42.755Z,60.92
2019-03-11T02:46:50.808Z,61.65
2019-03-11T02:47:59.008Z,62.11
2019-03-11T02:49:06.883Z,62.38
2019-03-11T02:50:15.072Z,62.32
2019-03-11T02:51:22.819Z,62.16
2019-03-11T02:52:30.877Z,62.20
2019-03-11T02:53:38.896Z,62.38
2019-03-11T02:54:46.969Z,63.33
2019-03-11T02:55:54.750Z,63.44
2019-03-11T02:57:02.856Z,64.01
2019-03-11T02:58:10.600Z,64.24
2019-03-11T02:59:18.469Z,64.51
2019-03-11T03:00:26.766Z,64.61
2019-03-11T03:01:52.663Z,64.77
2019-03-11T03:03:18.301Z,65.35
2019-03-11T03:04:39.881Z,65.46
2019-03-11T03:05:49.633Z,65.41
2019-03-11T03:06:57.634Z,65.40
2019-03-11T03:08:06.016Z,65.16
2019-03-11T03:09:15.691Z,65.22
2019-03-11T03:10:23.789Z,65.38
2019-03-11T03:11:31.870Z,65.32
2019-03-11T03:12:39.676Z,65.59
2019-03-11T03:13:47.393Z,66.12
2019-03-11T03:14:55.669Z,66.27
2019-03-11T03:16:03.751Z,66.13
2019-03-11T03:17:11.811Z,66.01
2019-03-11T03:18:19.691Z,65.21
2019-03-11T03:19:27.660Z,65.31
2019-03-11T03:20:35.859Z,65.48
2019-03-11T03:21:43.994Z,65.74
2019-03-11T03:22:51.879Z,66.09
2019-03-11T03:23:59.921Z,66.59
2019-03-11T03:25:12.033Z,66.64
2019-03-11T03:26:20.294Z,66.72
2019-03-11T03:27:28.493Z,66.93
2019-03-11T03:28:36.698Z,66.97
2019-03-11T03:29:44.658Z,67.16
2019-03-11T03:30:52.774Z,66.38
2019-03-11T03:32:00.782Z,66.66
2019-03-11T03:33:08.736Z,67.04
2019-03-11T03:34:17.242Z,67.04
2019-03-11T03:35:25.067Z,67.01
2019-03-11T03:36:32.925Z,66.94
2019-03-11T03:37:40.814Z,66.45
2019-03-11T03:38:48.744Z,66.15
2019-03-11T03:39:56.609Z,66.58
2019-03-11T03:41:04.670Z,66.05
2019-03-11T03:42:13.568Z,65.93
2019-03-11T03:43:22.066Z,65.64
2019-03-11T03:44:30.117Z,66.18
2019-03-11T03:45:41.354Z,66.48
2019-03-11T03:46:49.513Z,66.24
2019-03-11T03:47:57.882Z,66.31
2019-03-11T03:49:06.202Z,66.06
2019-03-11T03:50:14.712Z,65.64
2019-03-11T03:51:22.701Z,65.73
2019-03-11T03:52:30.553Z,65.75
2019-03-11T03:53:38.323Z,65.40
2019-03-11T03:54:46.277Z,65.50
2019-03-11T03:55:54.270Z,65.15
2019-03-11T03:57:02.471Z,65.12
2019-03-11T03:58:10.235Z,65.15
2019-03-11T03:59:18.045Z,65.16
2019-03-11T04:00:26.579Z,65.02
2019-03-11T04:01:34.463Z,64.74
2019-03-11T04:02:42.421Z,64.73
2019-03-11T04:03:50.453Z,65.00
2019-03-11T04:04:58.621Z,64.99
2019-03-11T04:06:06.542Z,64.78
2019-03-11T04:07:14.408Z,64.53
2019-03-11T04:08:22.408Z,64.59
2019-03-11T04:09:30.325Z,64.73
2019-03-11T04:10:38.420Z,65.00
2019-03-11T04:11:46.406Z,65.18
2019-03-11T04:12:54.702Z,65.31
2019-03-11T04:14:02.847Z,65.20
2019-03-11T04:15:11.997Z,65.25
2019-03-11T04:16:20.359Z,64.94
2019-03-11T04:17:28.747Z,64.95
2019-03-11T04:18:54.274Z,65.26
2019-03-11T04:20:02.438Z,65.30
2019-03-11T04:21:10.430Z,65.36
2019-03-11T04:22:18.494Z,65.48
2019-03-11T04:23:26.726Z,65.46
2019-03-11T04:24:34.710Z,65.55
2019-03-11T04:25:42.670Z,65.58
2019-03-11T04:26:54.412Z,65.56
2019-03-11T04:28:02.597Z,65.50
2019-03-11T04:29:10.789Z,65.68
2019-03-11T04:30:23.186Z,65.71
2019-03-11T04:31:31.091Z,65.71
2019-03-11T04:32:38.870Z,65.57
2019-03-11T04:33:47.226Z,65.67
2019-03-11T04:34:55.177Z,65.42
2019-03-11T04:36:03.389Z,65.04
2019-03-11T04:37:11.204Z,65.05
2019-03-11T04:38:19.283Z,65.20
2019-03-11T04:39:27.298Z,65.23
2019-03-11T04:40:35.171Z,65.42
2019-03-11T04:41:43.143Z,65.40
2019-03-11T04:42:51.578Z,65.44
2019-03-11T04:43:59.539Z,65.71
2019-03-11T04:45:11.477Z,65.33
2019-03-11T04:46:19.795Z,65.44
2019-03-11T04:47:27.745Z,65.32
2019-03-11T04:48:35.979Z,65.42
2019-03-11T04:49:44.000Z,65.35
2019-03-11T04:50:51.924Z,65.29
2019-03-11T04:52:00.060Z,65.21
2019-03-11T04:53:07.930Z,65.12
2019-03-11T04:54:15.722Z,65.36
2019-03-11T04:55:23.630Z,65.16
2019-03-11T04:56:31.569Z,65.24
2019-03-11T04:57:53.954Z,65.24
2019-03-11T04:59:13.332Z,65.34
2019-03-11T05:00:25.379Z,65.23
2019-03-11T05:01:33.252Z,65.28
2019-03-11T05:02:41.345Z,65.13
2019-03-11T05:03:49.696Z,65.09
2019-03-11T05:04:57.661Z,64.94
2019-03-11T05:06:05.607Z,64.73
2019-03-11T05:07:14.266Z,64.45
2019-03-11T05:08:22.324Z,64.77
2019-03-11T05:09:30.569Z,64.80
2019-03-11T05:10:38.682Z,64.97
2019-03-11T05:11:46.574Z,65.03
2019-03-11T05:12:54.763Z,65.06
2019-03-11T05:14:03.222Z,64.88
2019-03-11T05:15:13.937Z,64.97
2019-03-11T05:16:22.147Z,65.12
2019-03-11T05:17:30.349Z,65.14
2019-03-11T05:18:38.511Z,65.22
2019-03-11T05:19:46.485Z,65.27
2019-03-11T05:20:55.020Z,65.30
2019-03-11T05:22:03.429Z,65.24
2019-03-11T05:23:11.529Z,65.47
2019-03-11T05:24:19.611Z,65.57
2019-03-11T05:25:28.020Z,65.71
2019-03-11T05:26:36.124Z,65.81
2019-03-11T05:27:44.726Z,65.99
2019-03-11T05:28:53.218Z,66.58
2019-03-11T05:30:01.651Z,67.04
2019-03-11T05:31:09.790Z,67.35
2019-03-11T05:32:17.752Z,67.36
2019-03-11T05:33:25.580Z,67.27
2019-03-11T05:34:33.829Z,67.20
2019-03-11T05:35:42.128Z,67.10
2019-03-11T05:36:50.131Z,65.24
2019-03-11T05:37:58.154Z,64.12
2019-03-11T05:39:08.066Z,62.99
2019-03-11T05:40:21.113Z,62.46
2019-03-11T05:41:29.198Z,62.42
2019-03-11T05:42:36.988Z,61.84
2019-03-11T05:43:44.936Z,61.96
2019-03-11T05:44:53.219Z,61.95
2019-03-11T05:46:01.061Z,62.11
2019-03-11T05:47:08.834Z,62.15
2019-03-11T05:48:16.810Z,62.22
2019-03-11T05:49:24.828Z,62.04
2019-03-11T05:50:33.225Z,62.07
2019-03-11T05:51:41.329Z,62.13
2019-03-11T05:52:49.197Z,62.02
2019-03-11T05:53:57.223Z,61.86
2019-03-11T05:55:06.017Z,61.81
2019-03-11T05:56:13.875Z,61.48
2019-03-11T05:57:22.231Z,61.12
2019-03-11T05:58:30.043Z,60.94
2019-03-11T05:59:38.303Z,61.03
2019-03-11T06:00:46.265Z,60.71
2019-03-11T06:01:54.195Z,60.73
2019-03-11T06:03:02.374Z,60.64
2019-03-11T06:04:10.389Z,59.61
2019-03-11T06:05:18.582Z,59.46
2019-03-11T06:06:26.651Z,59.21
2019-03-11T06:07:34.761Z,59.17
2019-03-11T06:08:42.826Z,58.74
2019-03-11T06:09:51.071Z,58.17
2019-03-11T06:10:59.012Z,58.41
2019-03-11T06:12:07.045Z,58.28
2019-03-11T06:13:15.178Z,58.35
2019-03-11T06:14:23.155Z,57.69
2019-03-11T06:15:31.124Z,57.65
2019-03-11T06:16:39.391Z,57.75
2019-03-11T06:17:47.398Z,57.19
2019-03-11T06:18:55.406Z,56.99
2019-03-11T06:20:11.276Z,57.01
2019-03-11T06:21:21.159Z,57.13
2019-03-11T06:22:29.669Z,57.07
2019-03-11T06:23:37.673Z,56.80
2019-03-11T06:24:45.446Z,56.55
2019-03-11T06:25:53.370Z,56.71
2019-03-11T06:27:01.826Z,55.38
2019-03-11T06:28:10.125Z,55.57
2019-03-11T06:29:18.339Z,55.69
2019-03-11T06:30:26.665Z,55.74
2019-03-11T06:31:34.945Z,55.82
2019-03-11T06:32:42.960Z,55.69
2019-03-11T06:33:51.053Z,55.88
2019-03-11T06:34:59.150Z,55.98
2019-03-11T06:36:07.198Z,55.80
2019-03-11T06:37:15.378Z,55.68
2019-03-11T06:38:23.613Z,55.52
2019-03-11T06:39:31.722Z,55.29
2019-03-11T06:40:39.821Z,55.47
2019-03-11T06:41:47.814Z,55.36
2019-03-11T06:42:55.816Z,55.56
2019-03-11T06:44:03.825Z,55.54
2019-03-11T06:45:14.127Z,55.57
2019-03-11T06:46:22.147Z,55.33
2019-03-11T06:47:30.445Z,55.26
2019-03-11T06:48:38.596Z,55.48
2019-03-11T06:49:46.798Z,55.43
2019-03-11T06:50:54.998Z,55.40
2019-03-11T06:52:03.770Z,54.86
2019-03-11T06:53:12.246Z,54.86
2019-03-11T06:54:20.868Z,55.07
2019-03-11T06:55:29.016Z,54.91
2019-03-11T06:56:37.077Z,54.87
2019-03-11T06:57:44.990Z,55.29
2019-03-11T06:58:53.027Z,55.33
2019-03-11T07:00:01.084Z,55.21
2019-03-11T07:01:09.027Z,55.44
2019-03-11T07:02:16.955Z,55.77
2019-03-11T07:03:25.133Z,55.96
2019-03-11T07:04:33.219Z,56.55
2019-03-11T07:05:41.237Z,56.81
2019-03-11T07:06:49.326Z,57.22
2019-03-11T07:07:57.409Z,57.80
2019-03-11T07:09:07.927Z,57.97
2019-03-11T07:10:17.482Z,58.24
2019-03-11T07:11:25.688Z,58.85
2019-03-11T07:12:34.016Z,59.18
2019-03-11T07:13:42.398Z,59.57
2019-03-11T07:14:50.598Z,60.11
2019-03-11T07:15:58.539Z,60.17
2019-03-11T07:17:06.444Z,60.54
2019-03-11T07:18:14.117Z,60.75
2019-03-11T07:19:22.087Z,60.86
2019-03-11T07:20:30.309Z,61.10
2019-03-11T07:21:38.461Z,61.33
2019-03-11T07:22:46.562Z,61.43
2019-03-11T07:23:54.661Z,61.88
2019-03-11T07:25:02.704Z,62.48
2019-03-11T07:26:10.606Z,62.90
2019-03-11T07:27:18.673Z,62.93
2019-03-11T07:28:26.644Z,63.22
2019-03-11T07:29:34.352Z,63.48
2019-03-11T07:30:42.450Z,63.27
2019-03-11T07:31:50.620Z,63.72
2019-03-11T07:32:58.624Z,64.16
2019-03-11T07:34:06.593Z,64.10
2019-03-11T07:35:14.693Z,64.06
2019-03-11T07:36:22.839Z,64.54
2019-03-11T07:37:30.923Z,64.58
2019-03-11T07:38:39.031Z,64.10
2019-03-11T07:39:46.970Z,64.35
2019-03-11T07:40:55.027Z,64.71
2019-03-11T07:42:03.278Z,64.76
2019-03-11T07:43:11.432Z,64.67
2019-03-11T07:44:19.628Z,64.60
2019-03-11T07:45:27.571Z,64.41
2019-03-11T07:46:35.534Z,64.43
2019-03-11T07:47:43.869Z,63.97
2019-03-11T07:48:51.783Z,63.61
2019-03-11T07:49:59.543Z,63.64
2019-03-11T07:51:07.669Z,63.81
2019-03-11T07:52:15.981Z,63.53
2019-03-11T07:53:24.789Z,63.49
2019-03-11T07:54:36.044Z,63.07
2019-03-11T07:55:42.819Z,63.79
2019-03-11T07:56:50.969Z,63.68
2019-03-11T07:57:59.341Z,63.43
2019-03-11T07:59:07.320Z,63.42
2019-03-11T08:00:21.042Z,62.52
2019-03-11T08:01:29.111Z,62.77
2019-03-11T08:02:37.032Z,62.13
2019-03-11T08:03:45.010Z,62.28
2019-03-11T08:04:53.224Z,62.56
2019-03-11T08:06:01.220Z,61.95
2019-03-11T08:07:09.043Z,61.32
2019-03-11T08:08:17.017Z,61.59
2019-03-11T08:09:36.934Z,61.41
2019-03-11T08:10:34.862Z,61.11
2019-03-11T08:11:42.919Z,60.76
2019-03-11T08:12:50.801Z,60.53
2019-03-11T08:13:58.936Z,60.07
2019-03-11T08:15:11.096Z,59.71
2019-03-11T08:16:19.228Z,58.15
2019-03-11T08:17:27.517Z,57.79
2019-03-11T08:18:35.838Z,57.21
2019-03-11T08:19:43.884Z,57.46
2019-03-11T08:20:51.680Z,57.12
2019-03-11T08:21:59.861Z,57.11
2019-03-11T08:23:07.783Z,55.61
2019-03-11T08:24:16.691Z,54.97
2019-03-11T08:25:24.813Z,54.90
2019-03-11T08:26:32.729Z,55.25
2019-03-11T08:27:40.905Z,54.56
2019-03-11T08:28:49.102Z,53.77
2019-03-11T08:29:59.416Z,54.24
2019-03-11T08:31:06.827Z,54.25
2019-03-11T08:32:14.744Z,53.88
2019-03-11T08:33:22.793Z,53.70
2019-03-11T08:34:30.614Z,52.22
2019-03-11T08:35:39.121Z,51.78
2019-03-11T08:36:47.079Z,51.85
2019-03-11T08:37:55.110Z,52.56
2019-03-11T08:39:02.990Z,52.97
2019-03-11T08:40:13.958Z,52.85
2019-03-11T08:41:22.087Z,53.08
2019-03-11T08:42:30.063Z,53.30
2019-03-11T08:43:38.554Z,53.32
2019-03-11T08:44:46.484Z,53.72
2019-03-11T08:45:54.651Z,54.07
2019-03-11T08:47:02.647Z,54.63
2019-03-11T08:48:10.735Z,54.98
2019-03-11T08:49:18.801Z,55.59
2019-03-11T08:50:26.785Z,55.71
2019-03-11T08:51:34.598Z,55.85
2019-03-11T08:52:42.665Z,56.08
2019-03-11T08:53:51.020Z,56.14
2019-03-11T08:54:59.013Z,56.76
2019-03-11T08:56:06.776Z,57.02
2019-03-11T08:57:14.750Z,57.34
2019-03-11T08:58:22.557Z,57.67
2019-03-11T08:59:30.451Z,57.57
2019-03-11T09:00:38.860Z,57.59
2019-03-11T09:01:46.591Z,57.31
2019-03-11T09:02:54.375Z,57.09
2019-03-11T09:04:02.455Z,57.46
2019-03-11T09:05:14.284Z,57.19
2019-03-11T09:06:22.519Z,57.06
2019-03-11T09:07:30.407Z,57.17
2019-03-11T09:08:38.302Z,57.54
2019-03-11T09:09:46.470Z,56.97
2019-03-11T09:10:54.430Z,56.53
2019-03-11T09:12:02.622Z,56.23
2019-03-11T09:13:10.612Z,55.50
2019-03-11T09:14:18.502Z,55.51
2019-03-11T09:15:26.392Z,55.37
2019-03-11T09:16:34.268Z,53.29
2019-03-11T09:17:42.813Z,53.14
2019-03-11T09:18:50.755Z,52.42
2019-03-11T09:19:58.519Z,53.01
2019-03-11T09:21:06.767Z,52.75
2019-03-11T09:22:14.641Z,52.03
2019-03-11T09:23:22.778Z,51.31
2019-03-11T09:24:30.955Z,51.24
2019-03-11T09:25:39.459Z,51.53
2019-03-11T09:26:47.348Z,50.62
2019-03-11T09:27:55.445Z,50.20
2019-03-11T09:29:04.047Z,50.07
2019-03-11T09:30:21.277Z,49.72
2019-03-11T09:31:29.257Z,49.09
2019-03-11T09:32:37.266Z,48.52
2019-03-11T09:33:45.335Z,48.22
2019-03-11T09:34:53.349Z,48.75
2019-03-11T09:36:01.277Z,47.93
2019-03-11T09:37:09.220Z,46.36
2019-03-11T09:38:17.435Z,46.49
2019-03-11T09:39:25.454Z,46.34
2019-03-11T09:40:33.451Z,46.72
2019-03-11T09:41:42.031Z,45.72
2019-03-11T09:42:50.247Z,45.38
2019-03-11T09:43:58.257Z,46.03
2019-03-11T09:45:10.583Z,45.81
2019-03-11T09:46:18.572Z,46.32
2019-03-11T09:47:26.641Z,47.06
2019-03-11T09:48:34.645Z,46.60
2019-03-11T09:49:42.781Z,46.15
2019-03-11T09:50:50.818Z,45.95
2019-03-11T09:51:58.797Z,45.62
2019-03-11T09:53:07.103Z,45.28
2019-03-11T09:54:15.124Z,45.01
2019-03-11T09:55:29.143Z,45.26
2019-03-11T09:56:43.107Z,45.37
2019-03-11T09:57:46.591Z,45.27
2019-03-11T09:58:54.552Z,44.78
2019-03-11T10:00:03.166Z,44.91
2019-03-11T10:01:11.116Z,45.10
2019-03-11T10:02:19.105Z,44.86
2019-03-11T10:03:27.169Z,44.45
2019-03-11T10:04:35.022Z,44.56
2019-03-11T10:05:42.953Z,44.47
2019-03-11T10:06:50.924Z,43.53
2019-03-11T10:07:59.341Z,42.53
2019-03-11T10:09:08.327Z,42.83
2019-03-11T10:10:21.560Z,42.71
2019-03-11T10:11:29.450Z,42.42
2019-03-11T10:12:37.441Z,42.92
2019-03-11T10:13:45.738Z,42.96
2019-03-11T10:14:53.540Z,43.14
2019-03-11T10:16:01.409Z,42.82
2019-03-11T10:17:09.698Z,42.78
2019-03-11T10:18:17.669Z,42.84
2019-03-11T10:19:25.448Z,42.25
2019-03-11T10:20:33.397Z,42.02
2019-03-11T10:21:41.807Z,42.33
2019-03-11T10:22:50.175Z,42.53
2019-03-11T10:23:59.335Z,42.67
2019-03-11T10:25:10.235Z,42.88
2019-03-11T10:26:18.297Z,43.11
2019-03-11T10:27:26.233Z,43.48
2019-03-11T10:28:34.376Z,43.83
2019-03-11T10:29:42.372Z,42.45
2019-03-11T10:30:50.376Z,42.26
2019-03-11T10:31:58.364Z,42.37
2019-03-11T10:33:06.300Z,42.04
2019-03-11T10:34:14.389Z,41.89
2019-03-11T10:35:37.867Z,40.37
2019-03-11T10:36:32.519Z,40.21
2019-03-11T10:37:40.560Z,39.96
2019-03-11T10:38:48.551Z,40.62
2019-03-11T10:39:56.470Z,40.57
2019-03-11T10:41:04.500Z,40.39
2019-03-11T10:42:12.371Z,40.12
2019-03-11T10:43:20.326Z,40.78
2019-03-11T10:44:28.392Z,40.54
2019-03-11T10:45:36.331Z,40.01
2019-03-11T10:46:45.172Z,40.30
2019-03-11T10:47:53.284Z,40.05
2019-03-11T10:49:01.551Z,39.84
2019-03-11T10:50:13.409Z,39.82
2019-03-11T10:51:21.464Z,39.73
2019-03-11T10:52:29.400Z,39.40
2019-03-11T10:53:37.461Z,39.09
2019-03-11T10:54:45.665Z,40.41
2019-03-11T10:55:53.792Z,40.15
2019-03-11T10:57:01.958Z,40.00
2019-03-11T10:58:09.838Z,40.53
2019-03-11T10:59:18.035Z,40.15
2019-03-11T11:00:37.359Z,39.81
2019-03-11T11:01:45.800Z,39.25
2019-03-11T11:02:53.939Z,39.67
2019-03-11T11:04:02.211Z,39.63
2019-03-11T11:05:11.054Z,40.03
2019-03-11T11:06:19.109Z,37.40
2019-03-11T11:07:27.234Z,37.67
2019-03-11T11:08:35.412Z,37.34
2019-03-11T11:09:43.528Z,36.40
2019-03-11T11:10:51.499Z,35.54
2019-03-11T11:11:59.494Z,34.40
2019-03-11T11:13:07.910Z,34.58
2019-03-11T11:14:15.968Z,34.90
2019-03-11T11:15:32.283Z,34.68
2019-03-11T11:16:40.729Z,34.43
2019-03-11T11:17:48.812Z,34.50
2019-03-11T11:18:56.985Z,34.51
2019-03-11T11:20:07.901Z,34.61
2019-03-11T11:21:15.677Z,33.58
2019-03-11T11:22:23.832Z,33.50
2019-03-11T11:23:31.964Z,33.35
2019-03-11T11:24:40.077Z,33.77
2019-03-11T11:25:48.225Z,32.92
2019-03-11T11:26:56.528Z,32.68
2019-03-11T11:28:05.226Z,33.23
2019-03-11T11:29:13.488Z,33.27
2019-03-11T11:30:25.955Z,32.99
2019-03-11T11:31:34.241Z,31.78
2019-03-11T11:32:42.448Z,31.40
2019-03-11T11:33:50.649Z,31.86
2019-03-11T11:34:58.728Z,32.04
2019-03-11T11:36:07.087Z,31.84
2019-03-11T11:37:14.906Z,31.95
2019-03-11T11:38:23.079Z,32.35
2019-03-11T11:39:31.142Z,32.50
2019-03-11T11:40:39.544Z,31.12
2019-03-11T11:41:47.772Z,30.08
2019-03-11T11:42:55.821Z,30.34
2019-03-11T11:44:03.860Z,30.12
2019-03-11T11:45:19.105Z,30.88
2019-03-11T11:46:27.220Z,31.24
2019-03-11T11:47:35.372Z,30.68
2019-03-11T11:48:43.457Z,29.97
2019-03-11T11:49:51.579Z,28.95
2019-03-11T11:50:59.872Z,28.52
2019-03-11T11:52:08.163Z,28.57
2019-03-11T11:53:16.572Z,28.63
2019-03-11T11:54:24.868Z,28.43
2019-03-11T11:55:33.058Z,28.20
2019-03-11T11:56:41.066Z,28.39
2019-03-11T11:57:49.384Z,28.84
2019-03-11T11:58:57.462Z,28.64
2019-03-11T12:00:12.157Z,28.69
2019-03-11T12:01:20.011Z,28.92
2019-03-11T12:02:28.422Z,28.99
2019-03-11T12:03:36.430Z,29.11
2019-03-11T12:04:44.436Z,29.85
2019-03-11T12:05:52.510Z,29.75
2019-03-11T12:07:00.595Z,29.26
2019-03-11T12:08:08.701Z,29.30
2019-03-11T12:09:16.719Z,29.69
2019-03-11T12:10:30.278Z,30.13
2019-03-11T12:11:38.267Z,30.57
2019-03-11T12:12:46.523Z,30.15
2019-03-11T12:13:54.516Z,29.98
2019-03-11T12:15:02.554Z,30.21
2019-03-11T12:16:10.902Z,29.74
2019-03-11T12:17:19.091Z,29.44
2019-03-11T12:18:27.198Z,29.38
2019-03-11T12:19:35.113Z,29.39
2019-03-11T12:20:43.106Z,28.98
2019-03-11T12:21:51.358Z,29.46
2019-03-11T12:22:59.417Z,29.77
2019-03-11T12:24:07.474Z,29.66
2019-03-11T12:25:17.310Z,29.57
2019-03-11T12:26:25.632Z,29.81
2019-03-11T12:27:33.741Z,29.79
2019-03-11T12:28:41.699Z,30.05
2019-03-11T12:29:51.532Z,29.91
2019-03-11T12:30:59.850Z,29.73
2019-03-11T12:32:08.024Z,29.75
2019-03-11T12:33:16.061Z,29.80
2019-03-11T12:34:24.198Z,29.98
2019-03-11T12:35:32.710Z,29.60
2019-03-11T12:36:40.852Z,29.36
2019-03-11T12:37:48.789Z,29.70
2019-03-11T12:38:56.630Z,29.00
2019-03-11T12:40:06.263Z,29.37
2019-03-11T12:41:14.269Z,28.92
2019-03-11T12:42:22.637Z,28.99
2019-03-11T12:43:30.550Z,29.08
2019-03-11T12:44:38.433Z,28.88
2019-03-11T12:45:46.699Z,28.95
2019-03-11T12:46:55.161Z,28.57
2019-03-11T12:48:03.098Z,28.87
2019-03-11T12:49:11.064Z,28.84
2019-03-11T12:50:27.796Z,28.24
2019-03-11T12:51:35.875Z,28.39
2019-03-11T12:52:43.843Z,29.05
2019-03-11T12:53:52.084Z,28.90
2019-03-11T12:55:00.342Z,29.00
2019-03-11T12:56:08.463Z,30.06
2019-03-11T12:57:16.502Z,29.47
2019-03-11T12:58:24.846Z,28.62
2019-03-11T12:59:40.293Z,28.20
2019-03-11T13:00:42.785Z,27.16
2019-03-11T13:01:51.047Z,26.89
2019-03-11T13:02:59.487Z,26.94
2019-03-11T13:04:07.397Z,26.94
2019-03-11T13:05:16.370Z,27.39
2019-03-11T13:06:24.499Z,27.96
2019-03-11T13:07:32.755Z,28.23
2019-03-11T13:08:40.831Z,28.75
2019-03-11T13:09:49.330Z,28.65
2019-03-11T13:10:57.701Z,28.50
2019-03-11T13:12:06.003Z,28.73
2019-03-11T13:13:14.171Z,28.75
2019-03-11T13:14:22.407Z,28.10
2019-03-11T13:15:30.702Z,28.10
2019-03-11T13:16:39.111Z,27.94
2019-03-11T13:17:47.441Z,27.92
2019-03-11T13:18:55.670Z,28.08
2019-03-11T13:20:04.581Z,28.31
2019-03-11T13:21:23.060Z,28.34
2019-03-11T13:22:31.258Z,28.20
2019-03-11T13:23:41.411Z,28.38
2019-03-11T13:24:48.961Z,28.48
2019-03-11T13:25:57.050Z,28.71
2019-03-11T13:27:05.246Z,28.91
2019-03-11T13:28:13.370Z,29.03
2019-03-11T13:29:21.471Z,29.31
2019-03-11T13:30:30.075Z,29.82
2019-03-11T13:31:38.428Z,30.04
2019-03-11T13:32:46.417Z,29.91
2019-03-11T13:33:54.696Z,30.11
2019-03-11T13:35:02.789Z,30.05
2019-03-11T13:36:11.310Z,30.19
2019-03-11T13:37:19.423Z,29.87
2019-03-11T13:38:27.571Z,30.24
2019-03-11T13:39:35.591Z,30.54
2019-03-11T13:40:43.789Z,30.80
2019-03-11T13:41:53.074Z,29.68
2019-03-11T13:43:01.089Z,29.56
2019-03-11T13:44:09.514Z,28.89
2019-03-11T13:45:20.808Z,28.87
2019-03-11T13:46:28.743Z,28.42
2019-03-11T13:47:36.903Z,28.45
2019-03-11T13:48:45.045Z,28.66
2019-03-11T13:49:53.227Z,29.04
2019-03-11T13:51:01.881Z,29.12
2019-03-11T13:52:10.256Z,29.20
2019-03-11T13:53:18.266Z,29.19
2019-03-11T13:54:26.487Z,29.55
2019-03-11T13:55:34.778Z,29.37
2019-03-11T13:56:42.947Z,29.33
2019-03-11T13:57:50.993Z,28.89
2019-03-11T13:58:59.219Z,28.76
2019-03-11T14:00:15.446Z,28.67
2019-03-11T14:01:23.396Z,28.33
2019-03-11T14:02:31.912Z,27.93
2019-03-11T14:03:39.873Z,27.71
2019-03-11T14:04:47.954Z,27.32
2019-03-11T14:05:56.918Z,26.99
2019-03-11T14:07:05.127Z,27.23
2019-03-11T14:08:13.237Z,27.61
2019-03-11T14:09:21.344Z,27.75
2019-03-11T14:10:29.347Z,27.60
2019-03-11T14:11:37.184Z,27.80
2019-03-11T14:12:46.163Z,27.82
2019-03-11T14:13:54.012Z,27.93
2019-03-11T14:15:01.930Z,28.33
2019-03-11T14:16:09.978Z,28.64
2019-03-11T14:17:17.934Z,28.87
2019-03-11T14:18:26.050Z,29.10
2019-03-11T14:19:34.146Z,29.41
2019-03-11T14:20:42.368Z,29.50
2019-03-11T14:21:50.573Z,29.74
2019-03-11T14:22:59.036Z,29.81
2019-03-11T14:24:07.158Z,30.06
2019-03-11T14:25:16.049Z,30.34
2019-03-11T14:26:24.143Z,30.58
2019-03-11T14:27:32.855Z,30.67
2019-03-11T14:28:41.087Z,30.97
2019-03-11T14:29:49.087Z,30.94
2019-03-11T14:30:57.476Z,31.11
2019-03-11T14:32:05.675Z,31.29
2019-03-11T14:33:13.630Z,31.55
2019-03-11T14:34:21.946Z,31.69
2019-03-11T14:35:30.126Z,31.85
2019-03-11T14:36:38.303Z,31.91
2019-03-11T14:37:46.586Z,31.99
2019-03-11T14:38:54.561Z,32.10
2019-03-11T14:40:03.174Z,32.34
2019-03-11T14:41:11.670Z,32.57
2019-03-11T14:42:19.969Z,32.77